05h38 EDT


 

Suivi/Infos de l'aéroport


-ou-


 

Suivi des vols en temps réel9Y-TTC ✈ 08-05-2013 ✈ TTPP / POS - TTCP / TAB

Thumbnail
9Y-TTC / BWA1506
Unknown Owner · Trinidad & Tobago
Piarco Int'l ( – info)
Port-d'Espagne TT
Crown Point ( – info)
Scarborough, Tobago TT
Prévu: 08h10 AST
Prévu: 08h15 AST
Durée: 16 minutes
mercredi, 8 mai 2013
Statut Arrivé il y a plus d'un an. (journal de vol & graphique)
Avion Aerospatiale ATR-42-300 (bi-turbopropulseur) (AT43 – photos)
Vitesse Plan de vol: 532 kts (graphique)
Distance En ligne droite 83 km
Une partie au moins de ce vol se déroule hors de la zone de services primaire de FlightAware. Pour en savoir plus sur la couverture et la zone de services de FlightAware.
JOURNAL DE L'ACTIVITE
Vous voulez une recherche complète sur l'historique de 9Y-TTC depuis 1998? Achetez maintenant. Recevez-le dans l'heure.
Date Avion Provenance Destination Départ Arrivée Durée
13-09-2014 AT43Int'l Grantley-Adams ()Piarco Int'l () 20h52 AST 21h43 AST 0:51
13-09-2014 AT43Piarco Int'l ()Int'l Grantley-Adams () 19h26 AST 20h17 AST 0:51
13-09-2014 AT43Crown Point ()Piarco Int'l () 17h17 AST 17h35 AST 0:18
13-09-2014 AT43Piarco Int'l ()Crown Point () 16h28 AST 16h44 AST 0:16
13-09-2014 AT43Crown Point ()Piarco Int'l () 15h32 AST 15h53 AST 0:21
13-09-2014 AT43Piarco Int'l ()Crown Point () 13h32 AST 13h49 AST 0:17
13-09-2014 AT43Crown Point ()Piarco Int'l () 12h07 AST 12h25 AST 0:18
13-09-2014 AT43Piarco Int'l ()Crown Point () 11h12 AST 11h35 AST 0:23
13-09-2014 AT43Crown Point ()Piarco Int'l () 10h03 AST 10h21 AST 0:18
13-09-2014 AT43Piarco Int'l ()Crown Point () 09h10 AST 09h32 AST 0:22
13-09-2014 AT43Int'l Grantley-Adams ()Piarco Int'l () 07h15 AST 08h05 AST 0:50
13-09-2014 AT43Piarco Int'l ()Int'l Grantley-Adams () 05h51 AST 06h41 AST 0:50
13-09-2014 AT43Crown Point ()Piarco Int'l () 01h58 AST 02h13 AST 0:15
13-09-2014 AT43Piarco Int'l ()Crown Point () 01h03 AST 01h16 AST 0:12
12-09-2014 AT43Crown Point ()Piarco Int'l () 23h58 AST 00h14 AST (+1) 0:16
12-09-2014 AT43Piarco Int'l ()Crown Point () 23h13 AST 23h30 AST 0:17
12-09-2014 AT43Crown Point ()Piarco Int'l () 21h57 AST 22h07 AST 0:10
12-09-2014 AT43Piarco Int'l ()Crown Point () 20h57 AST 21h14 AST 0:17
12-09-2014 AT43Crown Point ()Piarco Int'l () 19h32 AST 19h49 AST 0:17
12-09-2014 AT43Piarco Int'l ()Crown Point () 18h36 AST 18h53 AST 0:17
12-09-2014 AT43Crown Point ()Piarco Int'l () 17h25 AST 17h46 AST 0:21
12-09-2014 AT43Piarco Int'l ()Crown Point () 16h29 AST 16h46 AST 0:17
12-09-2014 AT43Crown Point ()Piarco Int'l () 15h23 AST 15h43 AST 0:20
12-09-2014 AT43Piarco Int'l ()Crown Point () 14h27 AST 14h47 AST 0:20
12-09-2014 AT43Crown Point ()Piarco Int'l () 12h45 AST 13h02 AST 0:17
12-09-2014 AT43Piarco Int'l ()Crown Point () 11h59 AST 12h13 AST 0:13
12-09-2014 AT43Crown Point ()Piarco Int'l () 11h00 AST 11h23 AST 0:23
12-09-2014 AT43Piarco Int'l ()Crown Point () 10h16 AST 10h29 AST 0:12
12-09-2014 AT43Crown Point ()Piarco Int'l () 08h27 AST 08h43 AST 0:16
12-09-2014 AT43Piarco Int'l ()Crown Point () 07h39 AST 07h58 AST 0:19
12-09-2014 AT43Crown Point ()Piarco Int'l () 06h41 AST 06h58 AST 0:17
12-09-2014 AT43Piarco Int'l ()Crown Point () 05h56 AST 06h13 AST 0:17
12-09-2014 AT43Crown Point ()Piarco Int'l () 01h28 AST 01h43 AST (?) 0:15
12-09-2014 AT43Piarco Int'l ()Crown Point () 00h42 AST 00h57 AST 0:14
11-09-2014 AT43Crown Point ()Piarco Int'l () 23h35 AST 23h54 AST 0:19
11-09-2014 AT43Piarco Int'l ()Crown Point () 22h41 AST 23h00 AST 0:19
11-09-2014 AT43Crown Point ()Piarco Int'l () 21h48 AST 22h01 AST 0:13
11-09-2014 AT43Piarco Int'l ()Crown Point () 20h47 AST 21h06 AST 0:19
11-09-2014 AT43Crown Point ()Piarco Int'l () 13h37 AST 13h56 AST 0:19
11-09-2014 AT43Piarco Int'l ()Crown Point () 12h45 AST 13h00 AST 0:14
11-09-2014 AT43Int'l Maiquetía ~ Simón Bolívar ()Piarco Int'l () 09h36 VET 11h37 AST 1:31
11-09-2014 AT43Piarco Int'l ()Int'l Maiquetía ~ Simón Bolívar () 07h19 AST 08h23 VET 1:34
10-09-2014 AT43Crown Point ()Piarco Int'l () 19h26 AST 19h44 AST 0:18
10-09-2014 AT43Piarco Int'l ()Crown Point () 18h26 AST 18h43 AST 0:17
10-09-2014 AT43Crown Point ()Piarco Int'l () 17h14 AST 17h32 AST 0:18
10-09-2014 AT43Piarco Int'l ()Crown Point () 16h20 AST 16h36 AST 0:16
10-09-2014 AT43Crown Point ()Piarco Int'l () 15h17 AST 15h36 AST 0:19
10-09-2014 AT43Piarco Int'l ()Crown Point () 14h26 AST 14h42 AST 0:16
10-09-2014 AT43Crown Point ()Piarco Int'l () 13h08 AST 13h25 AST 0:17
10-09-2014 AT43Piarco Int'l ()Crown Point () 12h24 AST 12h37 AST 0:12
10-09-2014 AT43Crown Point ()Piarco Int'l () 11h18 AST 11h32 AST 0:13
10-09-2014 AT43Piarco Int'l ()Crown Point () 10h23 AST 10h37 AST 0:13
10-09-2014 AT43Crown Point ()Piarco Int'l () 09h22 AST 09h38 AST 0:16
10-09-2014 AT43Piarco Int'l ()Crown Point () 08h14 AST 08h34 AST 0:19
10-09-2014 AT43Crown Point ()Piarco Int'l () 07h00 AST 07h17 AST 0:17
10-09-2014 AT43Piarco Int'l ()Crown Point () 06h09 AST 06h22 AST 0:12
09-09-2014 AT43Crown Point ()Piarco Int'l () 20h27 AST 20h45 AST 0:18
09-09-2014 AT43Piarco Int'l ()Crown Point () 19h32 AST 19h49 AST 0:16
09-09-2014 AT43Crown Point ()Piarco Int'l () 18h34 AST 18h47 AST 0:13
09-09-2014 AT43Piarco Int'l ()Crown Point () 17h31 AST 17h47 AST 0:16
09-09-2014 AT43George F. L. Charles ()Piarco Int'l () 15h21 AST 16h20 AST 0:59
09-09-2014 AT43Piarco Int'l ()George F. L. Charles () 13h47 AST 14h45 AST 0:57
09-09-2014 AT43Crown Point ()Piarco Int'l () 10h08 AST 10h29 AST 0:21
09-09-2014 AT43Piarco Int'l ()Crown Point () 09h13 AST 09h30 AST 0:17
09-09-2014 AT43Point Salines Int'l ()Piarco Int'l () 07h42 AST 08h10 AST 0:28
09-09-2014 AT43Piarco Int'l ()Point Salines Int'l () 06h39 AST 07h05 AST 0:25
09-09-2014 AT43Crown Point ()Piarco Int'l () 01h23 AST 01h35 AST 0:12
09-09-2014 AT43Piarco Int'l ()Crown Point () 00h39 AST 00h53 AST 0:13
08-09-2014 AT43Crown Point ()Piarco Int'l () 23h40 AST 23h57 AST 0:17
08-09-2014 AT43Piarco Int'l ()Crown Point () 22h55 AST 23h09 AST 0:13
08-09-2014 AT43Crown Point ()Piarco Int'l () 21h48 AST 22h05 AST 0:17
08-09-2014 AT43Piarco Int'l ()Crown Point () 20h58 AST 21h16 AST 0:17
08-09-2014 AT43Crown Point ()Piarco Int'l () 19h22 AST 19h42 AST 0:20
08-09-2014 AT43Piarco Int'l ()Crown Point () 18h28 AST 18h44 AST 0:15
08-09-2014 AT43Crown Point ()Piarco Int'l () 17h17 AST 17h35 AST 0:18
08-09-2014 AT43Piarco Int'l ()Crown Point () 16h12 AST 16h26 AST 0:13
08-09-2014 AT43Crown Point ()Piarco Int'l () 15h17 AST 15h41 AST 0:24
08-09-2014 AT43Piarco Int'l ()Crown Point () 14h31 AST 14h46 AST 0:14
08-09-2014 AT43Crown Point ()Piarco Int'l () 13h22 AST 13h36 AST 0:13
08-09-2014 AT43Piarco Int'l ()Crown Point () 12h29 AST 12h43 AST 0:13
08-09-2014 AT43Crown Point ()Piarco Int'l () 11h22 AST 11h41 AST 0:19
08-09-2014 AT43Piarco Int'l ()Crown Point () 10h25 AST 10h40 AST 0:14
08-09-2014 AT43Crown Point ()Piarco Int'l () 09h13 AST 09h33 AST 0:20
08-09-2014 AT43Piarco Int'l ()Crown Point () 08h17 AST 08h33 AST 0:15
08-09-2014 AT43Crown Point ()Piarco Int'l () 07h13 AST 07h25 AST 0:11
08-09-2014 AT43Piarco Int'l ()Crown Point () 06h16 AST 06h32 AST 0:15
07-09-2014 AT43Crown Point ()Piarco Int'l () 22h27 AST 22h44 AST 0:17
07-09-2014 AT43Piarco Int'l ()Crown Point () 21h19 AST 21h34 AST 0:14
07-09-2014 AT43Crown Point ()Piarco Int'l () 19h47 AST 20h04 AST 0:17
07-09-2014 AT43Piarco Int'l ()Crown Point () 18h43 AST 18h56 AST 0:12
07-09-2014 AT43Crown Point ()Piarco Int'l () 17h48 AST 18h06 AST 0:18
07-09-2014 AT43Piarco Int'l ()Crown Point () 16h58 AST 17h12 AST 0:13
07-09-2014 AT43Crown Point ()Piarco Int'l () 13h43 AST 14h01 AST 0:18
07-09-2014 AT43Piarco Int'l ()Crown Point () 12h53 AST 13h07 AST 0:13
07-09-2014 AT43Crown Point ()Piarco Int'l () 11h49 AST 12h08 AST 0:19
07-09-2014 AT43Piarco Int'l ()Crown Point () 10h58 AST 11h16 AST 0:17
07-09-2014 AT43Crown Point ()Piarco Int'l () 09h42 AST 10h00 AST 0:18
07-09-2014 AT43Piarco Int'l ()Crown Point () 08h51 AST 09h05 AST 0:13
07-09-2014 AT43Crown Point ()Piarco Int'l () 07h52 AST 08h11 AST 0:19
Les membres inscrits (l'inscription est gratuite et facile!) voient 4 months d'historique. S'inscrire